createdAt,value
2023-01-19T00:00:03.242Z,77.8
2023-01-19T00:03:03.305Z,77.8
2023-01-19T00:06:03.279Z,77.8
2023-01-19T00:09:03.137Z,77.8
2023-01-19T00:12:03.383Z,77.8
2023-01-19T00:15:03.210Z,77.8
2023-01-19T00:18:03.163Z,77.8
2023-01-19T00:21:03.169Z,77.8
2023-01-19T00:24:03.254Z,80.9
2023-01-19T00:27:03.104Z,80.9
2023-01-19T00:30:03.232Z,80.9
2023-01-19T00:33:04.277Z,80.9
2023-01-19T00:36:03.211Z,80.9
2023-01-19T00:39:03.103Z,80.9
2023-01-19T00:42:03.154Z,80.9
2023-01-19T00:45:03.184Z,80.9
2023-01-19T00:48:03.188Z,80.9
2023-01-19T00:51:03.162Z,80.9
2023-01-19T00:54:03.272Z,80.9
2023-01-19T00:57:03.196Z,80.9
2023-01-19T01:00:03.222Z,80.9
2023-01-19T01:03:04.862Z,81.9
2023-01-19T01:06:03.127Z,81.9
2023-01-19T01:09:03.177Z,81.9
2023-01-19T01:12:03.172Z,81.9
2023-01-19T01:15:03.264Z,81.3
2023-01-19T01:18:03.209Z,81.3
2023-01-19T01:21:03.115Z,81.3
2023-01-19T01:24:03.184Z,81.3
2023-01-19T01:27:03.128Z,81.3
2023-01-19T01:30:03.308Z,81.3
2023-01-19T01:33:04.137Z,81.3
2023-01-19T01:36:03.143Z,81.3
2023-01-19T01:39:03.140Z,80.6
2023-01-19T01:42:03.179Z,80.6
2023-01-19T01:45:03.175Z,80.6
2023-01-19T01:48:03.139Z,80.6
2023-01-19T01:51:03.200Z,80.6
2023-01-19T01:54:03.182Z,80.6
2023-01-19T01:57:03.152Z,80.6
2023-01-19T02:00:03.178Z,80.6
2023-01-19T02:03:04.396Z,80.6
2023-01-19T02:06:03.263Z,80.6
2023-01-19T02:09:03.194Z,80.6
2023-01-19T02:12:03.120Z,80.6
2023-01-19T02:15:03.122Z,80
2023-01-19T02:18:03.124Z,80
2023-01-19T02:21:03.133Z,80
2023-01-19T02:24:03.169Z,80
2023-01-19T02:27:03.102Z,80
2023-01-19T02:30:03.152Z,80
2023-01-19T02:33:04.002Z,80
2023-01-19T02:36:03.144Z,80
2023-01-19T02:39:03.152Z,80
2023-01-19T02:42:03.130Z,80
2023-01-19T02:45:03.215Z,80
2023-01-19T02:48:03.135Z,80
2023-01-19T02:51:03.177Z,80
2023-01-19T02:54:03.132Z,80
2023-01-19T02:57:03.144Z,80
2023-01-19T03:00:03.177Z,80
2023-01-19T03:03:04.268Z,80
2023-01-19T03:06:03.138Z,80.7
2023-01-19T03:09:03.150Z,80.6
2023-01-19T03:12:03.194Z,80.6
2023-01-19T03:15:03.541Z,80.6
2023-01-19T03:18:03.177Z,80.6
2023-01-19T03:21:03.122Z,80.6
2023-01-19T03:24:03.211Z,80.6
2023-01-19T03:27:03.120Z,80.6
2023-01-19T03:30:03.198Z,80.6
2023-01-19T03:33:04.227Z,80.6
2023-01-19T03:36:03.174Z,80.6
2023-01-19T03:39:03.205Z,80.6
2023-01-19T03:42:03.204Z,80.6
2023-01-19T03:45:03.184Z,80.6
2023-01-19T03:48:03.189Z,80.6
2023-01-19T03:51:03.163Z,80.6
2023-01-19T03:54:03.196Z,80.6
2023-01-19T03:57:03.129Z,80.6
2023-01-19T04:00:03.354Z,80.6
2023-01-19T04:03:04.418Z,80.6
2023-01-19T04:06:03.212Z,80.6
2023-01-19T04:09:03.223Z,80.6
2023-01-19T04:12:03.139Z,80.6
2023-01-19T04:15:03.252Z,80.6
2023-01-19T04:18:03.141Z,80.6
2023-01-19T04:21:03.145Z,80.6
2023-01-19T04:24:03.184Z,80.6
2023-01-19T04:27:03.135Z,80.6
2023-01-19T04:30:03.196Z,80.6
2023-01-19T04:33:04.413Z,80.6
2023-01-19T04:36:03.165Z,80.6
2023-01-19T04:39:03.190Z,80.6
2023-01-19T04:42:03.131Z,80.6
2023-01-19T04:45:03.152Z,80.6
2023-01-19T04:48:03.198Z,80.6
2023-01-19T04:51:03.200Z,80.6
2023-01-19T04:54:03.284Z,80.6
2023-01-19T04:57:03.160Z,80.2
2023-01-19T05:00:03.221Z,80.2
2023-01-19T05:03:04.521Z,80.2
2023-01-19T05:06:03.160Z,80.2
2023-01-19T05:09:03.117Z,80.2
2023-01-19T05:12:03.173Z,80.2
2023-01-19T05:15:03.119Z,80.2
2023-01-19T05:18:03.122Z,80.2
2023-01-19T05:21:03.158Z,80.2
2023-01-19T05:24:03.160Z,80.2
2023-01-19T05:27:03.111Z,80.2
2023-01-19T05:30:03.145Z,80.2
2023-01-19T05:33:04.056Z,80.2
2023-01-19T05:36:03.157Z,80.1
2023-01-19T05:39:03.098Z,80.1
2023-01-19T05:42:03.155Z,80.1
2023-01-19T05:45:03.231Z,80.1
2023-01-19T05:48:03.178Z,80.1
2023-01-19T05:51:03.163Z,80.1
2023-01-19T05:54:03.236Z,80.1
2023-01-19T05:57:03.200Z,80.1
2023-01-19T06:00:03.185Z,80.1
2023-01-19T06:03:04.421Z,80.1
2023-01-19T06:06:03.166Z,80.1
2023-01-19T06:09:03.136Z,80.1
2023-01-19T06:12:03.135Z,80.1
2023-01-19T06:15:03.367Z,80.1
2023-01-19T06:18:03.166Z,80.1
2023-01-19T06:21:03.162Z,80.1
2023-01-19T06:24:03.124Z,80.1
2023-01-19T06:27:03.175Z,80.7
2023-01-19T06:30:03.331Z,80.7
2023-01-19T06:33:04.150Z,80.7
2023-01-19T06:36:03.247Z,80.7
2023-01-19T06:39:03.139Z,80.7
2023-01-19T06:42:03.224Z,80.7
2023-01-19T06:45:03.154Z,80.5
2023-01-19T06:48:03.349Z,80.5
2023-01-19T06:51:03.167Z,80.5
2023-01-19T06:54:03.191Z,80.5
2023-01-19T06:57:05.782Z,80.5
2023-01-19T07:00:03.375Z,80.5
2023-01-19T07:03:04.581Z,80.5
2023-01-19T07:06:03.140Z,80.5
2023-01-19T07:09:03.195Z,80.5
2023-01-19T07:12:03.165Z,80.5
2023-01-19T07:15:03.214Z,80.5
2023-01-19T07:18:03.172Z,80.5
2023-01-19T07:21:03.211Z,80.7
2023-01-19T07:24:03.257Z,80.7
2023-01-19T07:27:03.219Z,80.8
2023-01-19T07:30:03.306Z,80.8
2023-01-19T07:33:04.255Z,80.8
2023-01-19T07:36:03.183Z,80.8
2023-01-19T07:39:03.289Z,80.8
2023-01-19T07:42:03.948Z,80.8
2023-01-19T07:45:03.205Z,80.8
2023-01-19T07:48:03.268Z,80.8
2023-01-19T07:51:03.234Z,80.8
2023-01-19T07:54:03.121Z,80.8
2023-01-19T07:57:03.274Z,80.8
2023-01-19T08:00:03.450Z,80.8
2023-01-19T08:03:04.637Z,80.8
2023-01-19T08:06:03.279Z,80.8
2023-01-19T08:09:03.388Z,80.8
2023-01-19T08:12:03.201Z,80.8
2023-01-19T08:15:03.298Z,80.7
2023-01-19T08:18:03.229Z,80.7
2023-01-19T08:21:03.204Z,80.7
2023-01-19T08:24:03.263Z,80.7
2023-01-19T08:27:03.306Z,80.7
2023-01-19T08:30:03.204Z,80.7
2023-01-19T08:33:04.494Z,80.7
2023-01-19T08:36:03.173Z,80.7
2023-01-19T08:39:03.259Z,80.7
2023-01-19T08:42:03.333Z,80.7
2023-01-19T08:45:03.188Z,80.7
2023-01-19T08:48:03.228Z,81.2
2023-01-19T08:51:03.275Z,81.2
2023-01-19T08:54:03.168Z,81.2
2023-01-19T08:57:03.229Z,81.2
2023-01-19T09:00:03.344Z,81.2
2023-01-19T09:03:04.698Z,81.2
2023-01-19T09:06:03.299Z,81.2
2023-01-19T09:09:03.151Z,80.3
2023-01-19T09:12:03.302Z,80.3
2023-01-19T09:15:03.472Z,80.3
2023-01-19T09:18:04.201Z,80.3
2023-01-19T09:21:03.202Z,80.3
2023-01-19T09:24:03.191Z,80.3
2023-01-19T09:27:03.293Z,78.9
2023-01-19T09:30:03.303Z,78.9
2023-01-19T09:33:03.200Z,78.9
2023-01-19T09:36:03.173Z,78.9
2023-01-19T09:39:03.195Z,78.9
2023-01-19T09:42:03.233Z,78.9
2023-01-19T09:45:03.611Z,78.9
2023-01-19T09:48:04.261Z,78.8
2023-01-19T09:51:03.242Z,78.8
2023-01-19T09:54:03.287Z,78.8
2023-01-19T09:57:03.157Z,78.8
2023-01-19T10:00:03.352Z,78.8
2023-01-19T10:03:04.238Z,78.8
2023-01-19T10:06:03.228Z,78
2023-01-19T10:09:03.155Z,78
2023-01-19T10:12:03.259Z,78
2023-01-19T10:15:03.219Z,78
2023-01-19T10:18:04.313Z,78
2023-01-19T10:21:05.452Z,78
2023-01-19T10:24:05.074Z,78
2023-01-19T10:27:03.229Z,78
2023-01-19T10:30:03.436Z,78
2023-01-19T10:33:04.366Z,78
2023-01-19T10:36:03.310Z,78
2023-01-19T10:39:03.176Z,78
2023-01-19T10:42:03.354Z,78
2023-01-19T10:45:03.375Z,78
2023-01-19T10:48:03.369Z,78
2023-01-19T10:51:03.417Z,78
2023-01-19T10:54:03.338Z,78
2023-01-19T10:57:03.261Z,78.7
2023-01-19T11:00:03.349Z,78.7
2023-01-19T11:03:04.782Z,78.7
2023-01-19T11:06:03.207Z,79.2
2023-01-19T11:09:03.149Z,79.2
2023-01-19T11:12:03.155Z,79.2
2023-01-19T11:15:03.168Z,79.2
2023-01-19T11:18:03.261Z,79.2
2023-01-19T11:21:03.207Z,79.2
2023-01-19T11:24:03.271Z,79.2
2023-01-19T11:27:03.169Z,79.2
2023-01-19T11:30:03.368Z,79.2
2023-01-19T11:33:04.070Z,79.2
2023-01-19T11:36:03.115Z,79.2
2023-01-19T11:39:03.208Z,79.2
2023-01-19T11:42:03.230Z,79.2
2023-01-19T11:45:03.322Z,79.2
2023-01-19T11:48:04.315Z,79.2
2023-01-19T11:51:03.265Z,79.2
2023-01-19T11:54:03.130Z,79.2
2023-01-19T11:57:03.222Z,80.1
2023-01-19T12:00:03.197Z,80.1
2023-01-19T12:03:03.457Z,80.1
2023-01-19T12:06:03.184Z,80.1
2023-01-19T12:09:03.207Z,80.1
2023-01-19T12:12:03.247Z,80.1
2023-01-19T12:15:03.449Z,80.1
2023-01-19T12:18:04.324Z,80.1
2023-01-19T12:21:06.614Z,80.1
2023-01-19T12:24:03.337Z,80.1
2023-01-19T12:27:03.295Z,80.5
2023-01-19T12:30:03.390Z,80.5
2023-01-19T12:33:03.200Z,80.5
2023-01-19T12:36:03.473Z,80.5
2023-01-19T12:39:03.285Z,80.5
2023-01-19T12:42:03.146Z,80.5
2023-01-19T12:45:03.285Z,80.5
2023-01-19T12:48:03.320Z,80.5
2023-01-19T12:51:03.226Z,80.5
2023-01-19T12:54:03.516Z,80.5
2023-01-19T12:57:03.253Z,80.5
2023-01-19T13:00:03.502Z,80.3
2023-01-19T13:03:03.456Z,80.3
2023-01-19T13:06:03.188Z,80.3
2023-01-19T13:09:03.251Z,80.3
2023-01-19T13:12:03.643Z,80.3
2023-01-19T13:15:03.687Z,80.3
2023-01-19T13:18:03.204Z,80.3
2023-01-19T13:21:03.192Z,80.3
2023-01-19T13:24:03.302Z,80.3
2023-01-19T13:27:03.271Z,80.3
2023-01-19T13:30:04.453Z,80.3
2023-01-19T13:33:03.232Z,80.3
2023-01-19T13:36:03.269Z,80.3
2023-01-19T13:39:03.326Z,83.4
2023-01-19T13:42:03.227Z,83.4
2023-01-19T13:45:03.237Z,83.4
2023-01-19T13:48:03.285Z,83.4
2023-01-19T13:51:03.175Z,83.4
2023-01-19T13:54:03.258Z,83.4
2023-01-19T13:57:03.299Z,84.8
2023-01-19T14:00:04.107Z,84.8
2023-01-19T14:03:03.410Z,84.8
2023-01-19T14:06:03.391Z,84.8
2023-01-19T14:09:03.477Z,84.8
2023-01-19T14:12:03.277Z,85.3
2023-01-19T14:15:03.369Z,85.3
2023-01-19T14:18:03.501Z,85.3
2023-01-19T14:21:03.291Z,85.3
2023-01-19T14:24:03.224Z,85.5
2023-01-19T14:27:03.191Z,85.5
2023-01-19T14:30:03.233Z,85.5
2023-01-19T14:33:03.268Z,85.5
2023-01-19T14:36:03.214Z,85.5
2023-01-19T14:39:03.228Z,85.5
2023-01-19T14:42:03.424Z,85.5
2023-01-19T14:45:03.501Z,85.5
2023-01-19T14:48:03.252Z,86.3
2023-01-19T14:51:06.173Z,86.3
2023-01-19T14:54:03.201Z,86.3
2023-01-19T14:57:03.223Z,86.3
2023-01-19T15:00:03.435Z,86.3
2023-01-19T15:03:03.222Z,86.3
2023-01-19T15:06:06.487Z,86.3
2023-01-19T15:09:03.152Z,86.6
2023-01-19T15:12:03.204Z,86.6
2023-01-19T15:15:03.622Z,86.6
2023-01-19T15:18:03.367Z,86.6
2023-01-19T15:21:03.236Z,86.6
2023-01-19T15:24:03.325Z,86.6
2023-01-19T15:27:03.207Z,86.9
2023-01-19T15:30:03.338Z,86.9
2023-01-19T15:33:03.271Z,86.9
2023-01-19T15:36:03.270Z,86.9
2023-01-19T15:39:03.415Z,87
2023-01-19T15:42:03.151Z,87
2023-01-19T15:45:03.223Z,87
2023-01-19T15:48:03.180Z,87.1
2023-01-19T15:51:03.207Z,87.1
2023-01-19T15:54:03.202Z,87.1
2023-01-19T15:57:03.195Z,87.1
2023-01-19T16:00:03.276Z,87.1
2023-01-19T16:03:03.363Z,87.1
2023-01-19T16:06:03.142Z,87.1
2023-01-19T16:09:03.297Z,87.2
2023-01-19T16:12:03.163Z,87.2
2023-01-19T16:15:03.253Z,87.2
2023-01-19T16:18:03.172Z,87.2
2023-01-19T16:21:03.199Z,87.2
2023-01-19T16:24:03.172Z,87.2
2023-01-19T16:27:03.168Z,87.2
2023-01-19T16:30:03.270Z,87.2
2023-01-19T16:33:03.139Z,87
2023-01-19T16:36:03.146Z,87
2023-01-19T16:39:03.265Z,86.9
2023-01-19T16:42:03.441Z,86.9
2023-01-19T16:45:03.170Z,86.9
2023-01-19T16:48:03.203Z,86.9
2023-01-19T16:51:03.123Z,86.9
2023-01-19T16:54:03.311Z,86.9
2023-01-19T16:57:03.245Z,86.7
2023-01-19T17:00:03.371Z,86.7
2023-01-19T17:03:03.453Z,86.7
2023-01-19T17:06:03.178Z,86.7
2023-01-19T17:09:03.177Z,86.7
2023-01-19T17:12:03.248Z,86.7
2023-01-19T17:15:03.262Z,86.7
2023-01-19T17:18:03.192Z,86.7
2023-01-19T17:21:03.200Z,86.7
2023-01-19T17:24:03.293Z,86.7
2023-01-19T17:27:03.307Z,86.7
2023-01-19T17:30:03.375Z,86.4
2023-01-19T17:33:03.258Z,86.4
2023-01-19T17:36:03.168Z,86.4
2023-01-19T17:39:03.198Z,86.4
2023-01-19T17:42:03.193Z,86.4
2023-01-19T17:45:03.206Z,86.4
2023-01-19T17:48:03.163Z,86.4
2023-01-19T17:51:03.244Z,86.4
2023-01-19T17:54:03.193Z,86.4
2023-01-19T17:57:03.209Z,86.6
2023-01-19T18:00:03.426Z,86.6
2023-01-19T18:03:03.622Z,86.6
2023-01-19T18:06:03.329Z,86.6
2023-01-19T18:09:03.223Z,86.6
2023-01-19T18:12:03.177Z,86.6
2023-01-19T18:15:03.308Z,86.6
2023-01-19T18:18:03.209Z,86.6
2023-01-19T18:21:03.265Z,86.5
2023-01-19T18:24:03.385Z,86.5
2023-01-19T18:27:03.191Z,86.5
2023-01-19T18:30:04.584Z,86.5
2023-01-19T18:33:03.355Z,86.5
2023-01-19T18:36:03.359Z,86.5
2023-01-19T18:39:03.289Z,86.5
2023-01-19T18:42:03.162Z,86.5
2023-01-19T18:45:03.367Z,86.5
2023-01-19T18:48:03.495Z,86.5
2023-01-19T18:51:03.513Z,86.5
2023-01-19T18:54:03.277Z,86.5
2023-01-19T18:57:03.281Z,86.5
2023-01-19T19:00:03.329Z,86.5
2023-01-19T19:03:03.424Z,86.5
2023-01-19T19:06:03.526Z,86.5
2023-01-19T19:09:03.220Z,86.5
2023-01-19T19:12:03.273Z,86.6
2023-01-19T19:15:03.172Z,86.6
2023-01-19T19:18:03.174Z,86.5
2023-01-19T19:21:03.160Z,86.5
2023-01-19T19:24:03.205Z,86.5
2023-01-19T19:27:03.190Z,86.5
2023-01-19T19:30:03.269Z,86.5
2023-01-19T19:33:03.259Z,86.6
2023-01-19T19:36:03.228Z,86.6
2023-01-19T19:39:03.194Z,86.6
2023-01-19T19:42:03.200Z,86.6
2023-01-19T19:45:03.193Z,86.6
2023-01-19T19:48:03.193Z,86.6
2023-01-19T19:51:20.993Z,86.6
2023-01-19T19:54:03.148Z,86.6
2023-01-19T19:57:03.183Z,86.6
2023-01-19T20:00:03.201Z,86.4
2023-01-19T20:03:03.294Z,86.4
2023-01-19T20:06:03.194Z,86.4
2023-01-19T20:09:03.132Z,86.5
2023-01-19T20:12:03.207Z,86.5
2023-01-19T20:15:03.275Z,86.5
2023-01-19T20:18:03.210Z,86.5
2023-01-19T20:21:03.278Z,86.5
2023-01-19T20:24:03.276Z,86.5
2023-01-19T20:27:03.171Z,86.5
2023-01-19T20:30:03.227Z,86.5
2023-01-19T20:33:03.143Z,86.5
2023-01-19T20:36:03.166Z,86.5
2023-01-19T20:39:03.186Z,86.4
2023-01-19T20:42:03.201Z,86.4
2023-01-19T20:45:03.304Z,86.4
2023-01-19T20:48:03.223Z,86.4
2023-01-19T20:51:03.283Z,86.4
2023-01-19T20:54:03.192Z,86.4
2023-01-19T20:57:03.108Z,86.4
2023-01-19T21:00:03.322Z,86.4
2023-01-19T21:03:03.101Z,86.4
2023-01-19T21:06:03.254Z,86.2
2023-01-19T21:09:03.181Z,86.2
2023-01-19T21:12:03.177Z,86.2
2023-01-19T21:15:03.142Z,86.2
2023-01-19T21:18:03.261Z,86.2
2023-01-19T21:21:03.350Z,86.2
2023-01-19T21:24:03.264Z,86.2
2023-01-19T21:27:03.174Z,86.2
2023-01-19T21:30:03.301Z,86.2
2023-01-19T21:33:03.208Z,86.2
2023-01-19T21:36:03.183Z,86
2023-01-19T21:39:03.617Z,86
2023-01-19T21:42:03.163Z,86
2023-01-19T21:45:03.396Z,86
2023-01-19T21:48:03.152Z,86
2023-01-19T21:51:03.243Z,86
2023-01-19T21:54:03.176Z,86
2023-01-19T21:57:03.150Z,86
2023-01-19T22:00:03.358Z,86
2023-01-19T22:03:07.243Z,86
2023-01-19T22:06:03.171Z,85.8
2023-01-19T22:09:03.373Z,85.7
2023-01-19T22:12:03.158Z,85.7
2023-01-19T22:15:03.241Z,85.7
2023-01-19T22:18:03.174Z,85.7
2023-01-19T22:21:03.247Z,85.7
2023-01-19T22:24:03.267Z,85.5
2023-01-19T22:27:03.182Z,85.5
2023-01-19T22:30:03.248Z,85.5
2023-01-19T22:33:03.235Z,85.5
2023-01-19T22:36:03.240Z,85.5
2023-01-19T22:39:03.183Z,85.5
2023-01-19T22:42:03.155Z,85.5
2023-01-19T22:45:03.197Z,85.3
2023-01-19T22:48:03.222Z,85.3
2023-01-19T22:51:03.279Z,85.3
2023-01-19T22:54:03.345Z,85.3
2023-01-19T22:57:03.240Z,85.3
2023-01-19T23:00:04.014Z,85.2
2023-01-19T23:03:03.158Z,85.2
2023-01-19T23:06:03.243Z,85.2
2023-01-19T23:09:03.188Z,85.2
2023-01-19T23:12:03.148Z,85.2
2023-01-19T23:15:03.177Z,85.2
2023-01-19T23:18:03.183Z,85.2
2023-01-19T23:21:03.154Z,85.2
2023-01-19T23:24:03.222Z,85.3
2023-01-19T23:27:03.169Z,85.3
2023-01-19T23:30:03.447Z,85.3
2023-01-19T23:33:03.119Z,85.3
2023-01-19T23:36:03.159Z,85.3
2023-01-19T23:39:03.194Z,85.3
2023-01-19T23:42:03.161Z,85.3
2023-01-19T23:45:03.186Z,85.3
2023-01-19T23:48:03.298Z,85.5
2023-01-19T23:51:03.134Z,85.5
2023-01-19T23:54:03.258Z,85.5
2023-01-19T23:57:03.128Z,85.4
